Time;durP1;ratioP1;P1;durP2;ratioP2;P2;SDS_P1;SDS_P2;PMS_P1;PMS_P2;Temp;Humidity;BMP_temperature;BMP_pressure;BME280_temperature;BME280_humidity;BME280_pressure;Samples;Min_cycle;Max_cycle;Signal;HPM_P1;HPM_P2
2021/11/13 00:01:05;;;;;;;23.37;17.47;;;;;;;;;;4982168;28;20319;-72
2021/11/13 00:03:30;;;;;;;22.53;16.03;;;;;;;;;;4982951;28;20648;-71
2021/11/13 00:05:55;;;;;;;25.63;18.40;;;;;;;;;;4985192;28;20264;-72
2021/11/13 00:08:21;;;;;;;23.57;17.23;;;;;;;;;;4985431;28;20232;-71
2021/11/13 00:10:47;;;;;;;22.30;16.50;;;;;;;;;;4983097;28;20205;-72
2021/11/13 00:13:13;;;;;;;24.23;17.53;;;;;;;;;;4984469;28;20737;-72
2021/11/13 00:15:38;;;;;;;20.77;15.77;;;;;;;;;;4985223;28;20440;-72
2021/11/13 00:18:03;;;;;;;28.33;17.20;;;;;;;;;;4982457;28;20889;-71
2021/11/13 00:20:29;;;;;;;22.70;16.90;;;;;;;;;;4983265;28;20191;-71
2021/11/13 00:22:55;;;;;;;22.47;16.50;;;;;;;;;;4986969;28;20188;-71
2021/11/13 00:25:21;;;;;;;22.53;17.00;;;;;;;;;;4983165;28;20747;-71
2021/11/13 00:27:46;;;;;;;30.93;17.50;;;;;;;;;;4984084;28;20464;-72
2021/11/13 00:30:12;;;;;;;22.40;17.13;;;;;;;;;;4981348;28;20474;-72
2021/11/13 00:32:38;;;;;;;23.10;16.80;;;;;;;;;;4987967;28;20181;-72
2021/11/13 00:35:03;;;;;;;24.80;17.50;;;;;;;;;;4982971;28;20439;-71
2021/11/13 00:37:29;;;;;;;26.30;17.50;;;;;;;;;;4984001;28;20342;-72
2021/11/13 00:39:54;;;;;;;23.00;17.10;;;;;;;;;;4987089;28;20188;-72
2021/11/13 00:42:19;;;;;;;24.17;18.27;;;;;;;;;;4989729;28;20651;-72
2021/11/13 00:44:45;;;;;;;21.30;16.40;;;;;;;;;;4990902;28;20213;-72
2021/11/13 00:47:10;;;;;;;26.87;16.70;;;;;;;;;;4991635;28;20205;-72
2021/11/13 00:49:35;;;;;;;21.30;16.87;;;;;;;;;;4983787;28;20281;-72
2021/11/13 00:52:01;;;;;;;24.87;17.90;;;;;;;;;;4984336;28;20213;-72
2021/11/13 00:54:26;;;;;;;22.13;16.50;;;;;;;;;;4981580;28;20263;-72
2021/11/13 00:56:52;;;;;;;21.43;16.83;;;;;;;;;;4989103;28;20542;-72
2021/11/13 00:59:17;;;;;;;22.23;16.90;;;;;;;;;;4986154;28;20193;-72
2021/11/13 01:01:42;;;;;;;27.40;17.53;;;;;;;;;;4986418;28;20193;-72
2021/11/13 01:04:08;;;;;;;21.77;17.07;;;;;;;;;;4985605;28;20194;-72
2021/11/13 01:06:33;;;;;;;25.03;17.80;;;;;;;;;;4986111;28;20177;-71
2021/11/13 01:08:58;;;;;;;27.23;17.40;;;;;;;;;;4981021;28;20715;-72
2021/11/13 01:11:24;;;;;;;23.80;16.93;;;;;;;;;;4984851;28;20660;-72
2021/11/13 01:13:49;;;;;;;28.60;17.40;;;;;;;;;;4979972;28;20213;-72
2021/11/13 01:16:15;;;;;;;19.47;15.70;;;;;;;;;;4982302;28;20801;-72
2021/11/13 01:18:41;;;;;;;22.00;16.63;;;;;;;;;;4981070;28;20653;-72
2021/11/13 01:21:06;;;;;;;22.70;17.10;;;;;;;;;;4983650;28;20189;-72
2021/11/13 01:23:32;;;;;;;21.57;17.30;;;;;;;;;;4982884;28;20443;-72
2021/11/13 01:25:57;;;;;;;19.47;16.17;;;;;;;;;;4983728;28;20871;-72
2021/11/13 01:28:22;;;;;;;20.73;16.10;;;;;;;;;;4982957;28;20204;-72
2021/11/13 01:30:48;;;;;;;20.83;16.67;;;;;;;;;;4982095;28;20205;-72
2021/11/13 01:33:13;;;;;;;27.37;18.80;;;;;;;;;;4983153;28;20178;-72
2021/11/13 01:35:39;;;;;;;26.03;18.67;;;;;;;;;;4984279;28;20566;-72
2021/11/13 01:38:04;;;;;;;25.40;16.50;;;;;;;;;;4983879;28;20200;-72
2021/11/13 01:40:29;;;;;;;27.43;17.17;;;;;;;;;;4984514;28;20221;-72
2021/11/13 01:42:55;;;;;;;23.97;17.70;;;;;;;;;;4984786;28;20189;-71
2021/11/13 01:45:21;;;;;;;26.23;19.00;;;;;;;;;;4983019;28;20185;-72
2021/11/13 01:47:47;;;;;;;28.33;17.87;;;;;;;;;;4982395;28;20241;-72
2021/11/13 01:50:14;;;;;;;23.20;17.20;;;;;;;;;;4982415;28;20992;-71
2021/11/13 01:52:39;;;;;;;25.33;18.13;;;;;;;;;;4986177;28;20185;-71
2021/11/13 01:55:05;;;;;;;23.17;18.77;;;;;;;;;;4986189;28;20689;-71
2021/11/13 01:57:43;;;;;;;24.67;18.83;;;;;;;;;;4981781;28;20667;-71
2021/11/13 02:00:09;;;;;;;27.53;19.23;;;;;;;;;;4984061;28;20186;-72
2021/11/13 02:02:34;;;;;;;23.97;18.33;;;;;;;;;;4985245;28;20791;-71
2021/11/13 02:04:59;;;;;;;24.73;17.90;;;;;;;;;;4985548;28;20234;-72
2021/11/13 02:07:25;;;;;;;28.73;19.17;;;;;;;;;;4979010;28;20205;-71
2021/11/13 02:09:50;;;;;;;23.17;19.00;;;;;;;;;;4985014;28;20606;-71
2021/11/13 02:12:15;;;;;;;25.80;20.23;;;;;;;;;;4985855;28;20236;-72
2021/11/13 02:14:40;;;;;;;25.67;19.00;;;;;;;;;;4987405;28;20188;-71
2021/11/13 02:17:06;;;;;;;27.47;20.77;;;;;;;;;;4988263;28;20189;-71
2021/11/13 02:19:31;;;;;;;28.63;18.93;;;;;;;;;;4983505;28;20216;-71
2021/11/13 02:21:57;;;;;;;29.47;21.00;;;;;;;;;;4981573;28;20556;-72
2021/11/13 02:24:22;;;;;;;27.63;20.00;;;;;;;;;;4996717;28;20288;-72
2021/11/13 02:26:48;;;;;;;23.47;18.60;;;;;;;;;;4979455;28;20436;-72
2021/11/13 02:29:13;;;;;;;24.43;18.77;;;;;;;;;;4982518;28;20209;-72
2021/11/13 02:31:41;;;;;;;25.43;19.90;;;;;;;;;;4982326;28;20205;-72
2021/11/13 02:34:07;;;;;;;29.70;20.80;;;;;;;;;;4981239;28;20181;-72
2021/11/13 02:36:32;;;;;;;33.60;21.57;;;;;;;;;;4981371;28;20437;-71
2021/11/13 02:38:59;;;;;;;27.90;20.20;;;;;;;;;;4982794;28;20483;-72
2021/11/13 02:41:27;;;;;;;25.93;20.63;;;;;;;;;;4991385;28;20635;-71
2021/11/13 02:43:53;;;;;;;25.85;20.75;;;;;;;;;;4993188;28;20440;-72
2021/11/13 02:46:18;;;;;;;22.20;19.70;;;;;;;;;;4992066;28;20444;-71
2021/11/13 02:48:43;;;;;;;26.10;19.00;;;;;;;;;;4990709;28;20214;-71
2021/11/13 02:51:09;;;;;;;26.87;19.83;;;;;;;;;;4986642;28;20208;-71
2021/11/13 02:53:35;;;;;;;25.87;20.40;;;;;;;;;;4986300;28;20188;-72
2021/11/13 02:56:02;;;;;;;26.30;21.27;;;;;;;;;;4988765;28;21056;-72
2021/11/13 02:58:27;;;;;;;29.67;21.93;;;;;;;;;;4985595;28;25056;-71
2021/11/13 03:00:56;;;;;;;28.00;21.07;;;;;;;;;;4984460;28;22194;-71
2021/11/13 03:03:22;;;;;;;24.00;20.90;;;;;;;;;;4986931;28;25070;-71
2021/11/13 03:05:54;;;;;;;21.93;19.53;;;;;;;;;;4986132;28;25068;-71
2021/11/13 03:08:27;;;;;;;26.87;20.03;;;;;;;;;;4985300;28;25061;-72
2021/11/13 03:10:54;;;;;;;26.10;20.23;;;;;;;;;;4984550;28;25163;-71
2021/11/13 03:13:20;;;;;;;27.03;20.00;;;;;;;;;;4981995;28;20647;-71
2021/11/13 03:15:47;;;;;;;23.83;19.30;;;;;;;;;;4988183;28;25114;-72
2021/11/13 03:18:12;;;;;;;28.27;21.93;;;;;;;;;;4984697;28;20213;-71
2021/11/13 03:20:37;;;;;;;22.53;19.00;;;;;;;;;;4986649;28;20468;-72
2021/11/13 03:23:02;;;;;;;21.73;18.20;;;;;;;;;;4981831;28;25137;-72
2021/11/13 03:25:31;;;;;;;25.40;20.40;;;;;;;;;;4997731;28;20196;-71
2021/11/13 03:27:58;;;;;;;24.43;19.27;;;;;;;;;;4981993;28;20205;-71
2021/11/13 03:30:23;;;;;;;25.90;19.30;;;;;;;;;;4988252;28;20645;-72
2021/11/13 03:32:50;;;;;;;23.60;19.03;;;;;;;;;;4983407;28;20976;-72
2021/11/13 03:35:17;;;;;;;23.70;19.10;;;;;;;;;;4990283;28;20188;-72
2021/11/13 03:37:43;;;;;;;22.50;18.47;;;;;;;;;;4987081;28;20542;-72
2021/11/13 03:40:09;;;;;;;20.60;18.40;;;;;;;;;;4983440;28;20953;-72
2021/11/13 03:42:35;;;;;;;21.73;18.50;;;;;;;;;;4987886;28;20177;-72
2021/11/13 03:45:00;;;;;;;21.40;18.50;;;;;;;;;;4990158;28;20439;-72
2021/11/13 03:47:26;;;;;;;21.70;18.67;;;;;;;;;;4988952;28;25129;-72
2021/11/13 03:49:52;;;;;;;21.43;19.10;;;;;;;;;;4988661;28;25061;-72
2021/11/13 03:52:17;;;;;;;21.63;18.20;;;;;;;;;;4982323;28;25154;-71
2021/11/13 03:54:42;;;;;;;26.00;20.73;;;;;;;;;;4985025;28;20467;-72
2021/11/13 03:57:08;;;;;;;20.17;17.63;;;;;;;;;;4982475;28;25076;-72
2021/11/13 03:59:33;;;;;;;21.00;17.43;;;;;;;;;;4985400;28;20203;-72
2021/11/13 04:01:59;;;;;;;22.67;17.60;;;;;;;;;;4984975;28;25128;-72
2021/11/13 04:04:24;;;;;;;23.83;18.43;;;;;;;;;;4983919;28;25105;-72
2021/11/13 04:06:49;;;;;;;21.67;19.17;;;;;;;;;;4981251;28;25135;-71
2021/11/13 04:09:15;;;;;;;18.87;16.70;;;;;;;;;;4983728;28;25185;-71
2021/11/13 04:11:40;;;;;;;22.70;18.87;;;;;;;;;;4982993;28;25069;-71
2021/11/13 04:14:05;;;;;;;19.17;16.87;;;;;;;;;;4986891;28;25074;-72
2021/11/13 04:16:31;;;;;;;22.70;17.40;;;;;;;;;;5001233;28;25091;-72
2021/11/13 04:18:56;;;;;;;18.97;16.97;;;;;;;;;;4981126;28;25057;-72
2021/11/13 04:21:21;;;;;;;17.70;15.80;;;;;;;;;;4991831;28;20515;-71
2021/11/13 04:23:47;;;;;;;19.80;15.90;;;;;;;;;;4982653;28;25055;-72
2021/11/13 04:26:12;;;;;;;19.57;16.13;;;;;;;;;;4987318;28;25125;-72
2021/11/13 04:28:38;;;;;;;17.47;15.77;;;;;;;;;;4989527;28;25100;-72
2021/11/13 04:31:03;;;;;;;18.17;16.27;;;;;;;;;;4984952;28;25057;-72
2021/11/13 04:33:29;;;;;;;17.47;15.67;;;;;;;;;;4985456;28;25065;-72
2021/11/13 04:36:15;;;;;;;18.13;15.97;;;;;;;;;;4984239;28;25103;-72
2021/11/13 04:38:40;;;;;;;15.77;13.87;;;;;;;;;;4982586;28;25086;-72
2021/11/13 04:41:07;;;;;;;17.90;13.60;;;;;;;;;;4985421;28;25131;-72
2021/11/13 04:43:32;;;;;;;15.77;14.17;;;;;;;;;;4986145;28;25078;-72
2021/11/13 04:45:57;;;;;;;15.50;13.80;;;;;;;;;;4986472;28;25108;-72
2021/11/13 04:48:23;;;;;;;16.00;14.40;;;;;;;;;;4982776;28;20216;-72
2021/11/13 04:50:48;;;;;;;17.73;15.57;;;;;;;;;;4982668;28;25154;-72
2021/11/13 04:53:13;;;;;;;15.87;14.20;;;;;;;;;;4985510;28;20199;-72
2021/11/13 04:55:39;;;;;;;15.70;14.13;;;;;;;;;;4982780;28;20227;-72
2021/11/13 04:58:04;;;;;;;14.30;12.90;;;;;;;;;;4983351;28;20228;-72
2021/11/13 05:00:31;;;;;;;15.50;12.90;;;;;;;;;;4981290;28;20533;-72
2021/11/13 05:02:57;;;;;;;15.07;13.43;;;;;;;;;;4980968;28;20199;-72
2021/11/13 05:05:22;;;;;;;15.13;13.60;;;;;;;;;;4984697;28;25094;-72
2021/11/13 05:07:47;;;;;;;14.97;13.60;;;;;;;;;;4977455;28;20215;-72
2021/11/13 05:10:13;;;;;;;13.37;12.03;;;;;;;;;;4985026;28;20227;-72
2021/11/13 05:12:39;;;;;;;13.70;12.40;;;;;;;;;;4984485;28;25054;-72
2021/11/13 05:15:05;;;;;;;15.83;13.40;;;;;;;;;;4984934;28;20185;-72
2021/11/13 05:17:30;;;;;;;14.53;13.07;;;;;;;;;;4981601;28;27186;-72
2021/11/13 05:19:55;;;;;;;14.53;12.53;;;;;;;;;;4983026;28;20289;-72
2021/11/13 05:22:21;;;;;;;14.13;12.70;;;;;;;;;;4985803;28;25064;-72
2021/11/13 05:24:46;;;;;;;14.33;12.97;;;;;;;;;;4982196;28;25069;-72
2021/11/13 05:27:12;;;;;;;15.57;13.83;;;;;;;;;;4987821;28;25151;-72
2021/11/13 05:29:37;;;;;;;14.20;12.80;;;;;;;;;;4980374;28;25054;-72
2021/11/13 05:32:03;;;;;;;14.03;12.47;;;;;;;;;;4986723;28;25120;-72
2021/11/13 05:34:28;;;;;;;13.53;12.23;;;;;;;;;;4987265;28;25111;-72
2021/11/13 05:36:53;;;;;;;14.87;13.10;;;;;;;;;;4986000;28;25094;-72
2021/11/13 05:39:19;;;;;;;14.23;12.23;;;;;;;;;;4985847;28;20682;-72
2021/11/13 05:41:44;;;;;;;13.80;12.43;;;;;;;;;;4981962;28;25086;-72
2021/11/13 05:44:10;;;;;;;12.23;10.93;;;;;;;;;;4986168;28;20206;-72
2021/11/13 05:46:35;;;;;;;12.50;11.30;;;;;;;;;;4984724;28;20204;-72
2021/11/13 05:49:00;;;;;;;12.57;11.37;;;;;;;;;;4979941;28;24972;-72
2021/11/13 05:51:25;;;;;;;14.03;12.73;;;;;;;;;;4987192;28;25088;-71
2021/11/13 05:53:51;;;;;;;13.70;12.40;;;;;;;;;;4985408;28;20223;-72
2021/11/13 05:56:16;;;;;;;12.97;11.77;;;;;;;;;;4979549;28;25085;-72
2021/11/13 05:58:41;;;;;;;12.60;11.40;;;;;;;;;;4981481;28;25158;-72
2021/11/13 06:01:07;;;;;;;12.20;11.00;;;;;;;;;;4987304;28;25080;-72
2021/11/13 06:03:32;;;;;;;13.30;11.93;;;;;;;;;;4992168;28;25084;-72
2021/11/13 06:05:57;;;;;;;13.60;12.30;;;;;;;;;;4987028;28;25122;-72
2021/11/13 06:08:23;;;;;;;13.67;12.27;;;;;;;;;;4988362;28;25053;-72
2021/11/13 06:10:48;;;;;;;14.40;12.80;;;;;;;;;;4980603;28;25089;-72
2021/11/13 06:13:13;;;;;;;15.50;12.37;;;;;;;;;;4985125;28;25069;-72
2021/11/13 06:15:38;;;;;;;14.57;12.27;;;;;;;;;;4979380;28;20188;-72
2021/11/13 06:18:04;;;;;;;13.83;12.50;;;;;;;;;;4980492;28;25124;-72
2021/11/13 06:20:29;;;;;;;15.13;13.73;;;;;;;;;;4977980;28;25080;-72
2021/11/13 06:22:54;;;;;;;15.20;13.37;;;;;;;;;;4986325;28;25054;-72
2021/11/13 06:25:20;;;;;;;13.87;12.47;;;;;;;;;;4981482;28;25067;-72
2021/11/13 06:27:45;;;;;;;14.37;12.93;;;;;;;;;;4984075;28;20211;-72
2021/11/13 06:30:12;;;;;;;14.50;13.10;;;;;;;;;;4996255;28;20203;-72
2021/11/13 06:32:37;;;;;;;15.27;13.63;;;;;;;;;;4982811;28;25085;-72
2021/11/13 06:35:03;;;;;;;13.10;11.80;;;;;;;;;;4982959;28;25129;-72
2021/11/13 06:37:29;;;;;;;13.20;12.00;;;;;;;;;;4986760;28;25081;-72
2021/11/13 06:39:54;;;;;;;14.80;13.20;;;;;;;;;;4981829;28;20447;-72
2021/11/13 06:42:20;;;;;;;13.50;12.20;;;;;;;;;;4986944;28;25091;-72
2021/11/13 06:44:45;;;;;;;16.90;13.77;;;;;;;;;;4986656;28;25142;-71
2021/11/13 06:47:10;;;;;;;13.10;11.90;;;;;;;;;;4985905;28;25076;-72
2021/11/13 06:49:36;;;;;;;14.17;12.17;;;;;;;;;;4983279;28;25057;-72
2021/11/13 06:52:01;;;;;;;14.67;13.23;;;;;;;;;;4982460;28;25147;-72
2021/11/13 06:54:26;;;;;;;13.23;11.93;;;;;;;;;;4982558;28;25066;-72
2021/11/13 06:56:52;;;;;;;14.73;13.17;;;;;;;;;;4977641;28;25132;-71
2021/11/13 06:59:17;;;;;;;14.80;13.40;;;;;;;;;;4980914;28;25063;-72
2021/11/13 07:01:43;;;;;;;14.33;13.00;;;;;;;;;;4984225;28;25079;-72
2021/11/13 07:04:08;;;;;;;14.37;12.87;;;;;;;;;;4986400;28;25061;-72
2021/11/13 07:06:33;;;;;;;15.13;13.63;;;;;;;;;;4985200;28;25051;-72
2021/11/13 07:08:58;;;;;;;15.47;13.47;;;;;;;;;;4985664;28;25043;-72
2021/11/13 07:11:24;;;;;;;15.67;14.17;;;;;;;;;;4989824;28;20231;-72
2021/11/13 07:13:49;;;;;;;15.40;13.90;;;;;;;;;;4989995;28;20188;-72
2021/11/13 07:16:14;;;;;;;16.90;15.10;;;;;;;;;;5003132;28;25065;-72
2021/11/13 07:18:39;;;;;;;14.57;13.20;;;;;;;;;;4986258;28;25117;-72
2021/11/13 07:21:05;;;;;;;17.20;15.50;;;;;;;;;;5004018;28;25108;-72
2021/11/13 07:23:31;;;;;;;16.63;14.57;;;;;;;;;;4986874;28;25155;-73
2021/11/13 07:25:57;;;;;;;15.27;13.63;;;;;;;;;;4985717;28;20562;-72
2021/11/13 07:28:34;;;;;;;16.53;14.30;;;;;;;;;;4985001;28;25102;-73
2021/11/13 07:31:00;;;;;;;14.07;12.73;;;;;;;;;;4989868;28;25098;-73
2021/11/13 07:33:25;;;;;;;18.33;14.60;;;;;;;;;;4992987;28;25104;-73
2021/11/13 07:35:50;;;;;;;18.07;15.30;;;;;;;;;;4992453;28;25061;-73
2021/11/13 07:38:15;;;;;;;16.90;15.10;;;;;;;;;;4991508;28;20212;-72
2021/11/13 07:40:41;;;;;;;16.20;14.60;;;;;;;;;;4990348;28;25140;-73
2021/11/13 07:43:06;;;;;;;17.10;15.40;;;;;;;;;;4993342;28;25079;-72
2021/11/13 07:45:31;;;;;;;16.60;14.90;;;;;;;;;;4991973;28;25086;-72
2021/11/13 07:47:57;;;;;;;16.70;14.83;;;;;;;;;;4989500;28;25073;-72
2021/11/13 07:50:22;;;;;;;18.83;15.30;;;;;;;;;;4987063;28;25125;-73
2021/11/13 07:52:48;;;;;;;18.33;16.40;;;;;;;;;;4985061;28;25067;-72
2021/11/13 07:55:14;;;;;;;18.63;16.63;;;;;;;;;;4984799;28;25138;-72
2021/11/13 07:57:39;;;;;;;18.83;16.17;;;;;;;;;;4983040;28;20227;-71
2021/11/13 08:00:07;;;;;;;19.20;17.20;;;;;;;;;;4997644;28;25123;-72
2021/11/13 08:02:32;;;;;;;20.00;17.17;;;;;;;;;;4994552;28;25087;-72
2021/11/13 08:04:57;;;;;;;19.97;17.40;;;;;;;;;;4984766;28;25106;-72
2021/11/13 08:07:23;;;;;;;18.83;16.80;;;;;;;;;;4982168;28;25085;-71
2021/11/13 08:09:49;;;;;;;17.87;16.13;;;;;;;;;;4980887;28;25145;-72
2021/11/13 08:12:14;;;;;;;22.87;17.97;;;;;;;;;;4978318;28;25127;-73
2021/11/13 08:14:39;;;;;;;19.27;17.37;;;;;;;;;;4984201;28;25133;-73
2021/11/13 08:17:04;;;;;;;18.87;16.87;;;;;;;;;;4987087;28;25137;-72
2021/11/13 08:19:30;;;;;;;23.70;17.53;;;;;;;;;;4978773;28;25124;-72
2021/11/13 08:21:55;;;;;;;19.53;17.50;;;;;;;;;;4980223;28;25074;-74
2021/11/13 08:24:20;;;;;;;19.80;17.70;;;;;;;;;;4982566;28;25086;-71
2021/11/13 08:26:46;;;;;;;21.60;17.00;;;;;;;;;;4983198;28;25113;-72
2021/11/13 08:29:11;;;;;;;20.90;18.90;;;;;;;;;;4982441;28;25135;-72
2021/11/13 08:31:37;;;;;;;20.60;18.40;;;;;;;;;;4985524;28;20214;-72
2021/11/13 08:34:02;;;;;;;20.30;18.20;;;;;;;;;;4983771;28;25069;-71
2021/11/13 08:36:27;;;;;;;20.40;17.33;;;;;;;;;;4979574;28;25114;-70
2021/11/13 08:38:53;;;;;;;20.10;17.47;;;;;;;;;;4984937;28;20283;-71
2021/11/13 08:41:19;;;;;;;18.63;16.80;;;;;;;;;;4986467;28;25045;-71
2021/11/13 08:43:44;;;;;;;18.13;16.33;;;;;;;;;;4986778;28;25129;-71
2021/11/13 08:46:09;;;;;;;20.37;17.57;;;;;;;;;;4982929;28;25129;-71
2021/11/13 08:48:34;;;;;;;19.23;17.27;;;;;;;;;;4974914;28;20891;-71
2021/11/13 08:51:00;;;;;;;19.83;17.47;;;;;;;;;;4983316;28;25058;-71
2021/11/13 08:53:25;;;;;;;17.80;16.10;;;;;;;;;;4981586;28;20777;-71
2021/11/13 08:55:50;;;;;;;20.47;15.90;;;;;;;;;;4980571;28;25119;-71
2021/11/13 08:58:16;;;;;;;16.70;15.00;;;;;;;;;;4984437;28;20206;-71
2021/11/13 09:00:41;;;;;;;19.27;17.30;;;;;;;;;;4982102;28;25092;-71
2021/11/13 09:03:07;;;;;;;17.67;15.90;;;;;;;;;;4978236;28;20192;-70
2021/11/13 09:05:33;;;;;;;18.10;16.20;;;;;;;;;;4981324;28;25149;-71
2021/11/13 09:07:59;;;;;;;17.97;16.20;;;;;;;;;;4979959;28;20473;-71
2021/11/13 09:10:25;;;;;;;18.20;16.53;;;;;;;;;;4977392;28;20250;-71
2021/11/13 09:12:50;;;;;;;19.77;17.30;;;;;;;;;;4978176;28;25094;-71
2021/11/13 09:15:27;;;;;;;18.20;16.30;;;;;;;;;;4975564;28;20288;-71
2021/11/13 09:17:53;;;;;;;21.13;17.33;;;;;;;;;;4985643;28;25045;-72
2021/11/13 09:20:19;;;;;;;18.60;16.80;;;;;;;;;;4987633;28;25111;-71
2021/11/13 09:22:44;;;;;;;19.53;17.60;;;;;;;;;;4987951;28;20784;-72
2021/11/13 09:25:09;;;;;;;18.87;17.07;;;;;;;;;;4985795;28;25070;-72
2021/11/13 09:27:36;;;;;;;17.27;15.53;;;;;;;;;;4993026;28;25163;-70
2021/11/13 09:30:03;;;;;;;18.23;16.43;;;;;;;;;;4985640;28;25068;-74
2021/11/13 09:32:28;;;;;;;21.03;18.97;;;;;;;;;;4983953;28;25102;-73
2021/11/13 09:34:53;;;;;;;17.90;16.10;;;;;;;;;;4991620;28;25865;-70
2021/11/13 09:37:19;;;;;;;18.50;16.60;;;;;;;;;;4986166;28;25071;-71
2021/11/13 09:39:44;;;;;;;18.60;16.70;;;;;;;;;;4988182;28;25088;-71
2021/11/13 09:42:09;;;;;;;20.07;17.60;;;;;;;;;;4990138;28;25068;-75
2021/11/13 09:44:35;;;;;;;19.20;17.33;;;;;;;;;;4989352;28;20624;-70
2021/11/13 09:47:00;;;;;;;18.60;16.80;;;;;;;;;;4987020;28;25141;-71
2021/11/13 09:49:29;;;;;;;17.40;15.80;;;;;;;;;;4988377;28;25069;-71
2021/11/13 09:51:55;;;;;;;18.67;16.70;;;;;;;;;;4982569;28;20216;-71
2021/11/13 09:54:21;;;;;;;19.57;17.27;;;;;;;;;;4988820;28;25112;-72
2021/11/13 09:56:46;;;;;;;18.97;17.07;;;;;;;;;;4981932;28;25100;-72
2021/11/13 09:59:11;;;;;;;18.20;16.50;;;;;;;;;;4987753;28;25061;-72
2021/11/13 10:01:37;;;;;;;20.33;18.10;;;;;;;;;;4983376;28;25104;-72
2021/11/13 10:04:02;;;;;;;19.73;17.77;;;;;;;;;;4986578;28;25071;-73
2021/11/13 10:06:28;;;;;;;19.70;17.60;;;;;;;;;;4981919;28;25137;-72
2021/11/13 10:08:53;;;;;;;21.00;18.80;;;;;;;;;;4986791;28;25080;-72
2021/11/13 10:11:22;;;;;;;21.60;18.90;;;;;;;;;;4980570;28;25081;-71
2021/11/13 10:13:51;;;;;;;22.10;19.70;;;;;;;;;;4986056;28;25061;-71
2021/11/13 10:16:19;;;;;;;22.90;18.37;;;;;;;;;;4991752;28;25123;-71
2021/11/13 10:18:46;;;;;;;22.60;19.67;;;;;;;;;;4985453;28;25088;-71
2021/11/13 10:21:14;;;;;;;22.53;18.33;;;;;;;;;;4981530;28;25116;-72
2021/11/13 10:23:49;;;;;;;21.43;18.80;;;;;;;;;;4982133;28;25185;-71
2021/11/13 10:26:20;;;;;;;25.83;18.30;;;;;;;;;;4983688;28;25128;-71
2021/11/13 10:29:06;;;;;;;25.40;19.10;;;;;;;;;;4988524;28;25176;-72
2021/11/13 10:31:32;;;;;;;22.80;19.30;;;;;;;;;;4984337;28;25150;-71
2021/11/13 10:33:59;;;;;;;23.23;18.70;;;;;;;;;;4987070;28;25108;-72
2021/11/13 10:36:27;;;;;;;20.63;17.90;;;;;;;;;;4988579;28;25182;-72
2021/11/13 10:38:56;;;;;;;24.43;20.20;;;;;;;;;;4989961;28;25116;-72
2021/11/13 10:41:22;;;;;;;26.30;21.67;;;;;;;;;;4993021;28;25142;-71
2021/11/13 10:43:47;;;;;;;25.00;19.77;;;;;;;;;;4987347;28;25161;-71
2021/11/13 10:46:14;;;;;;;27.83;21.63;;;;;;;;;;4991476;28;25169;-72
2021/11/13 10:48:41;;;;;;;22.37;19.43;;;;;;;;;;4989621;28;25103;-72
2021/11/13 10:51:08;;;;;;;23.60;20.27;;;;;;;;;;4987985;28;25157;-71
2021/11/13 10:53:34;;;;;;;23.83;20.13;;;;;;;;;;4995820;28;25135;-71
2021/11/13 10:56:04;;;;;;;23.50;20.03;;;;;;;;;;4993375;28;25141;-71
2021/11/13 10:58:30;;;;;;;26.37;21.33;;;;;;;;;;4989079;28;20459;-71
2021/11/13 11:00:56;;;;;;;24.57;20.73;;;;;;;;;;4994801;28;25106;-71
2021/11/13 11:03:28;;;;;;;26.43;21.73;;;;;;;;;;4988826;28;25090;-72
2021/11/13 11:05:53;;;;;;;26.60;23.30;;;;;;;;;;4995834;28;25157;-71
2021/11/13 11:08:32;;;;;;;26.07;21.87;;;;;;;;;;4995920;28;25181;-71
2021/11/13 11:10:58;;;;;;;27.40;22.40;;;;;;;;;;4996544;28;25072;-71
2021/11/13 11:13:46;;;;;;;25.03;20.83;;;;;;;;;;4997591;28;25115;-71
2021/11/13 11:16:22;;;;;;;27.07;23.23;;;;;;;;;;4992569;28;25059;-71
2021/11/13 11:18:51;;;;;;;27.73;21.00;;;;;;;;;;4993823;28;25121;-71
2021/11/13 11:21:35;;;;;;;25.80;22.97;;;;;;;;;;4994514;28;25099;-71
2021/11/13 11:24:11;;;;;;;25.33;21.73;;;;;;;;;;4992200;28;20497;-71
2021/11/13 11:26:38;;;;;;;24.17;21.20;;;;;;;;;;5000577;28;25142;-71
2021/11/13 11:29:03;;;;;;;23.07;20.00;;;;;;;;;;4995505;28;25100;-71
2021/11/13 11:31:37;;;;;;;25.93;20.73;;;;;;;;;;4996440;28;25117;-70
2021/11/13 11:34:03;;;;;;;24.87;19.70;;;;;;;;;;4995372;28;25078;-71
2021/11/13 11:36:29;;;;;;;23.70;19.00;;;;;;;;;;4992371;28;25105;-71
2021/11/13 11:38:54;;;;;;;29.07;20.67;;;;;;;;;;4993499;28;25085;-71
2021/11/13 11:41:19;;;;;;;27.10;20.53;;;;;;;;;;4993068;28;21143;-71
2021/11/13 11:43:45;;;;;;;23.03;19.53;;;;;;;;;;4992711;28;20169;-71
2021/11/13 11:46:10;;;;;;;23.60;20.30;;;;;;;;;;4987405;28;20189;-71
2021/11/13 11:48:35;;;;;;;24.20;19.70;;;;;;;;;;4989060;28;25073;-71
2021/11/13 11:51:01;;;;;;;26.30;21.50;;;;;;;;;;4992168;28;20695;-71
2021/11/13 11:53:28;;;;;;;21.40;19.10;;;;;;;;;;4989065;28;20220;-71
2021/11/13 11:55:54;;;;;;;23.23;20.67;;;;;;;;;;4989492;28;20252;-71
2021/11/13 11:58:24;;;;;;;24.40;19.70;;;;;;;;;;4987591;28;20445;-71
2021/11/13 12:00:53;;;;;;;26.80;21.10;;;;;;;;;;4987750;28;20177;-70
2021/11/13 12:03:25;;;;;;;23.17;19.50;;;;;;;;;;4990602;28;20573;-71
2021/11/13 12:05:51;;;;;;;27.13;19.80;;;;;;;;;;4992997;28;20786;-71
2021/11/13 12:08:18;;;;;;;27.10;20.60;;;;;;;;;;4990525;28;20464;-71
2021/11/13 12:10:44;;;;;;;23.13;17.67;;;;;;;;;;4993495;28;20712;-72
2021/11/13 12:13:29;;;;;;;22.47;20.07;;;;;;;;;;4991702;28;20796;-71
2021/11/13 12:15:56;;;;;;;22.67;17.60;;;;;;;;;;4991413;28;20186;-71
2021/11/13 12:18:25;;;;;;;26.33;19.20;;;;;;;;;;4986511;28;20825;-72
2021/11/13 12:20:51;;;;;;;26.50;21.60;;;;;;;;;;4993809;28;20429;-72
2021/11/13 12:23:29;;;;;;;22.67;18.40;;;;;;;;;;4988027;28;20954;-71
2021/11/13 12:26:02;;;;;;;23.87;18.70;;;;;;;;;;4988398;28;20272;-71
2021/11/13 12:28:29;;;;;;;27.47;20.30;;;;;;;;;;4991755;28;20455;-71
2021/11/13 12:30:57;;;;;;;27.83;19.60;;;;;;;;;;4993970;28;20956;-71
2021/11/13 12:33:28;;;;;;;26.50;20.53;;;;;;;;;;4993055;28;20519;-72
2021/11/13 12:35:55;;;;;;;36.20;22.77;;;;;;;;;;4993521;28;20429;-71
2021/11/13 12:38:48;;;;;;;32.83;19.90;;;;;;;;;;4993153;28;21343;-72
2021/11/13 12:41:13;;;;;;;26.67;19.73;;;;;;;;;;4990514;28;20458;-72
2021/11/13 12:43:55;;;;;;;23.10;18.30;;;;;;;;;;5000600;28;20436;-71
2021/11/13 12:46:28;;;;;;;27.00;20.40;;;;;;;;;;4991467;28;20186;-71
2021/11/13 12:49:11;;;;;;;30.90;21.07;;;;;;;;;;4988504;28;20459;-72
2021/11/13 12:51:36;;;;;;;36.40;21.40;;;;;;;;;;4990429;28;20463;-72
2021/11/13 12:54:14;;;;;;;37.07;22.40;;;;;;;;;;4989916;28;20425;-71
2021/11/13 12:56:58;;;;;;;26.83;20.00;;;;;;;;;;4992646;28;20631;-71
2021/11/13 12:59:25;;;;;;;23.13;18.70;;;;;;;;;;4991982;28;20427;-71
2021/11/13 13:02:01;;;;;;;24.43;19.97;;;;;;;;;;4992729;28;20427;-72
2021/11/13 13:04:31;;;;;;;32.60;22.07;;;;;;;;;;4990488;28;20428;-72
2021/11/13 13:06:56;;;;;;;25.93;21.50;;;;;;;;;;4984909;28;20486;-71
2021/11/13 13:09:21;;;;;;;23.27;20.30;;;;;;;;;;4992038;28;20428;-72
2021/11/13 13:11:53;;;;;;;27.77;20.67;;;;;;;;;;4991936;28;20205;-72
2021/11/13 13:14:20;;;;;;;23.30;18.97;;;;;;;;;;4990006;28;20188;-71
2021/11/13 13:16:45;;;;;;;25.57;20.23;;;;;;;;;;4989962;28;20429;-71
2021/11/13 13:19:11;;;;;;;25.33;18.17;;;;;;;;;;4992066;28;20511;-72
2021/11/13 13:21:38;;;;;;;22.63;18.27;;;;;;;;;;4989127;28;20189;-71
2021/11/13 13:24:12;;;;;;;24.00;20.03;;;;;;;;;;4997142;28;20809;-71
2021/11/13 13:26:38;;;;;;;21.80;18.83;;;;;;;;;;4992375;28;20416;-71
2021/11/13 13:29:17;;;;;;;25.67;19.23;;;;;;;;;;4989097;28;20825;-72
2021/11/13 13:31:59;;;;;;;21.30;18.50;;;;;;;;;;4991803;28;20193;-72
2021/11/13 13:34:26;;;;;;;28.50;19.20;;;;;;;;;;4992002;28;20849;-72
2021/11/13 13:36:53;;;;;;;31.00;19.63;;;;;;;;;;4987892;28;20408;-71
2021/11/13 13:39:18;;;;;;;29.93;19.70;;;;;;;;;;4993043;28;20443;-72
2021/11/13 13:41:44;;;;;;;37.00;21.03;;;;;;;;;;4993676;28;21068;-71
2021/11/13 13:44:09;;;;;;;28.67;19.70;;;;;;;;;;4995204;28;20253;-72
2021/11/13 13:46:41;;;;;;;28.50;19.20;;;;;;;;;;4993828;28;20226;-70
2021/11/13 13:49:13;;;;;;;41.90;20.33;;;;;;;;;;4990186;28;20190;-71
2021/11/13 13:51:42;;;;;;;27.10;18.50;;;;;;;;;;4993044;28;20535;-71
2021/11/13 13:54:09;;;;;;;23.83;18.93;;;;;;;;;;4989313;28;20478;-71
2021/11/13 13:56:49;;;;;;;20.87;17.10;;;;;;;;;;4984572;28;20513;-72
2021/11/13 13:59:27;;;;;;;20.30;16.67;;;;;;;;;;4991996;28;20544;-71
2021/11/13 14:02:00;;;;;;;20.33;16.60;;;;;;;;;;4993372;28;20787;-71
2021/11/13 14:04:27;;;;;;;20.50;17.07;;;;;;;;;;4985102;28;20436;-71
2021/11/13 14:06:53;;;;;;;19.67;16.20;;;;;;;;;;4988036;28;20444;-71
2021/11/13 14:09:19;;;;;;;25.40;17.93;;;;;;;;;;4990058;28;20428;-71
2021/11/13 14:11:51;;;;;;;20.77;16.90;;;;;;;;;;4989225;28;20879;-71
2021/11/13 14:14:27;;;;;;;21.60;16.63;;;;;;;;;;4987002;28;20528;-72